Woodward, OK

8:22 PM CST on February 27, 2015 (GMT -0600)
West Woodward | Change Station
CLOSE
Current Station
Airport
Location: Woodward,
Elevation: 2188 ft
Nearby Weather Stations
Active Advisory: Winter Weather Advisory Active Notice: Record Report

Elev 2188 ft 36.44 °N, 99.52 °W | Updated 7 minutes ago

Overcast
Overcast
16 °F
Feels Like 6 °F
N
7
Wind Variable Wind from East

Today
High -- | Low -- °F
--% Chance of Precip.
Yesterday
High -- | Low -- °F
Precip. -- in
7:10 AM 6:30 PM
Waxing Gibbous, 73% visible
Pressure 30.40 in
Visibility 10.0 miles
Clouds Mostly Cloudy 1300 ft
Mostly Cloudy 1800 ft
Overcast 5500 ft
Windchill 6 °F
Dew Point 10 °F
Humidity 79%
Rainfall 0.00 in
Snow Depth Not available.
UV 0 out of 12
Pollen .50 out of 12
Air Quality Not available.
Flu Activity Not available.
METAR KWWR 280215Z AUTO 10006KT 10SM -SN BKN013 BKN018 OVC055 M09/M12 A3040 RMK AO2

More Conditions Fewer Conditions

Pressure 30.40 in
Visibility 10.0 miles
Clouds Mostly Cloudy 1300 ft
Mostly Cloudy 1800 ft
Overcast 5500 ft
Windchill 6 °F
Dew Point 10 °F
Humidity 79%
Rainfall 0.00 in
Snow Depth Not available.
UV 0 out of 12
Pollen .50 out of 12
Air Quality Not available.
Flu Activity Not available.
METAR KWWR 280215Z AUTO 10006KT 10SM -SN BKN013 BKN018 OVC055 M09/M12 A3040 RMK AO2

More Conditions Fewer Conditions

10-Day Weather Forecast

Almanac

Astronomy

Feb. 27, 2015 Rise Set
Actual Time
Civil Twilight
Nautical Twilight
Astronomical Twilight
Moon
Length of Visible Light
Length of Day
Tomorrow will be .
, % of the Moon is Illuminated

Today's Extremes

State Highs State Lows

Community

WunderPhotos

Upload Photos

1,800,938 photos uploaded!

WunderBlogs® & News

Nearby

Air Quality

  Air Quality AQ Index Pollutant
Not available.

Snow Depth

Station Depth Elevation

Earthquake Activity

City Distance Mag. Time & Date
Minimum magnitude displayed is 2.5.

Coastal Water Temperatures

Place Temperature

Nearby Weather Stations

Winter Weather Advisory
Statement as of 6:01 PM CST on February 27, 2015

... Winter Weather Advisory now in effect from midnight tonight to
6 PM CST Saturday...

The Winter Weather Advisory is now in effect from midnight
tonight to 6 PM CST Saturday.

* Timing: snow will decrease this evening... but another round of
snow is expected to start around sunrise Saturday.

* Main impact: 1 to 3 inches of new snow by early Saturday evening.

* Other impacts: slick and hazardous roads are expected.

Precautionary/preparedness actions...

Be careful if you have to travel. Even small amounts of ice and
snow can make roads and sidewalks slick and dangerous.